createdAt,value
2022-08-17T00:04:20.738Z,24.24
2022-08-17T00:09:27.050Z,23.56
2022-08-17T00:14:33.180Z,22.86
2022-08-17T00:19:39.421Z,22.17
2022-08-17T00:24:45.529Z,23.56
2022-08-17T00:29:51.849Z,22.57
2022-08-17T00:34:57.945Z,22.00
2022-08-17T00:40:04.340Z,20.66
2022-08-17T00:45:10.509Z,21.98
2022-08-17T00:50:16.665Z,26.85
2022-08-17T00:55:23.141Z,25.24
2022-08-17T01:00:29.492Z,26.63
2022-08-17T01:05:35.635Z,26.66
2022-08-17T01:10:59.866Z,27.93
2022-08-17T01:15:47.877Z,28.40
2022-08-17T01:20:54.153Z,30.52
2022-08-17T01:26:00.394Z,31.67
2022-08-17T01:31:06.761Z,32.80
2022-08-17T01:36:13.060Z,33.35
2022-08-17T01:41:19.849Z,32.87
2022-08-17T01:46:25.921Z,32.73
2022-08-17T01:51:32.232Z,32.19
2022-08-17T01:56:38.333Z,30.84
2022-08-17T02:01:44.640Z,31.42
2022-08-17T02:06:53.178Z,32.73
2022-08-17T02:11:56.677Z,33.11
2022-08-17T02:17:02.980Z,32.57
2022-08-17T02:22:09.308Z,33.81
2022-08-17T02:27:15.513Z,33.45
2022-08-17T02:32:28.115Z,33.85
2022-08-17T02:37:27.742Z,35.06
2022-08-17T02:42:34.031Z,33.36
2022-08-17T02:47:40.485Z,35.45
2022-08-17T02:52:47.500Z,34.51
2022-08-17T02:57:52.321Z,33.54
2022-08-17T03:02:58.585Z,32.89
2022-08-17T03:08:04.870Z,33.47
2022-08-17T03:13:11.265Z,32.57
2022-08-17T03:18:24.103Z,34.36
2022-08-17T03:23:23.941Z,37.00
2022-08-17T03:28:29.090Z,37.55
2022-08-17T03:33:35.535Z,38.55
2022-08-17T03:38:41.956Z,38.29
2022-08-17T03:43:47.973Z,37.03
2022-08-17T03:48:54.432Z,37.24
2022-08-17T03:54:00.275Z,36.48
2022-08-17T03:59:06.398Z,34.71
2022-08-17T04:04:14.725Z,35.45
2022-08-17T04:09:20.942Z,35.28
2022-08-17T04:14:27.251Z,34.35
2022-08-17T04:19:33.438Z,35.43
2022-08-17T04:24:39.733Z,32.55
2022-08-17T04:29:54.255Z,33.69
2022-08-17T04:34:51.701Z,35.41
2022-08-17T04:40:00.751Z,32.86
2022-08-17T04:45:03.998Z,33.44
2022-08-17T04:50:09.689Z,31.94
2022-08-17T04:55:15.998Z,30.84
2022-08-17T05:00:22.131Z,31.60
2022-08-17T05:05:28.550Z,28.43
2022-08-17T05:10:34.732Z,27.61
2022-08-17T05:15:45.161Z,26.18
2022-08-17T05:20:46.250Z,26.26
2022-08-17T05:25:52.582Z,26.62
2022-08-17T05:30:58.718Z,23.54
2022-08-17T05:36:05.142Z,24.04
2022-08-17T05:41:11.270Z,22.30
2022-08-17T05:46:17.534Z,21.61
2022-08-17T05:51:23.682Z,21.24
2022-08-17T05:56:30.593Z,20.71
2022-08-17T06:01:35.757Z,22.87
2022-08-17T06:06:42.026Z,21.74
2022-08-17T06:11:53.673Z,21.90
2022-08-17T06:16:54.022Z,23.99
2022-08-17T06:22:00.142Z,23.76
2022-08-17T06:27:06.485Z,19.71
2022-08-17T06:32:12.864Z,21.06
2022-08-17T06:37:19.022Z,20.45
2022-08-17T06:42:54.737Z,20.55
2022-08-17T06:47:31.093Z,20.35
2022-08-17T06:52:45.946Z,20.65
2022-08-17T06:57:43.021Z,21.30
2022-08-17T07:02:51.230Z,18.91
2022-08-17T07:07:54.894Z,21.94
2022-08-17T07:13:01.001Z,22.52
2022-08-17T07:18:07.286Z,24.73
2022-08-17T07:23:13.429Z,23.39
2022-08-17T07:28:19.705Z,23.47
2022-08-17T07:33:25.834Z,25.28
2022-08-17T07:38:32.060Z,24.68
2022-08-17T07:43:38.192Z,20.55
2022-08-17T07:48:44.575Z,22.36
2022-08-17T07:53:50.707Z,23.85
2022-08-17T07:58:57.014Z,24.92
2022-08-17T08:04:03.156Z,21.95
2022-08-17T08:09:08.843Z,20.27
2022-08-17T08:14:14.971Z,21.97
2022-08-17T08:19:21.282Z,19.86
2022-08-17T08:24:31.050Z,22.61
2022-08-17T08:29:33.220Z,19.82
2022-08-17T08:34:44.521Z,21.34
2022-08-17T08:39:45.354Z,21.42
2022-08-17T08:45:00.534Z,20.20
2022-08-17T08:50:03.951Z,22.43
2022-08-17T08:55:03.006Z,19.93
2022-08-17T09:00:09.209Z,18.87
2022-08-17T09:05:15.989Z,20.20
2022-08-17T09:10:21.141Z,22.69
2022-08-17T09:15:26.918Z,24.14
2022-08-17T09:20:33.267Z,20.73
2022-08-17T09:25:39.470Z,23.46
2022-08-17T09:30:46.266Z,20.74
2022-08-17T09:35:52.378Z,19.09
2022-08-17T09:40:58.695Z,17.55
2022-08-17T09:46:04.829Z,19.36
2022-08-17T09:51:11.498Z,17.45
2022-08-17T09:56:17.574Z,15.15
2022-08-17T10:01:24.128Z,20.01
2022-08-17T10:06:30.026Z,18.18
2022-08-17T10:11:36.734Z,16.26
2022-08-17T10:16:42.374Z,19.42
2022-08-17T10:21:49.139Z,13.55
2022-08-17T10:26:56.104Z,19.37
2022-08-17T10:32:00.518Z,14.60
2022-08-17T10:37:06.610Z,14.77
2022-08-17T10:42:12.882Z,15.97
2022-08-17T10:47:18.493Z,12.84
2022-08-17T10:52:25.068Z,17.93
2022-08-17T10:57:31.309Z,14.82
2022-08-17T11:02:37.551Z,12.88
2022-08-17T11:07:44.602Z,10.25
2022-08-17T11:12:51.028Z,12.62
2022-08-17T11:17:57.160Z,15.05
2022-08-17T11:23:04.041Z,15.39
2022-08-17T11:28:10.222Z,13.50
2022-08-17T11:33:16.450Z,13.81
2022-08-17T11:38:22.091Z,15.71
2022-08-17T11:43:28.518Z,11.65
2022-08-17T11:48:34.956Z,11.33
2022-08-17T11:53:40.358Z,13.45
2022-08-17T11:58:46.446Z,9.83
2022-08-17T12:03:55.583Z,10.48
2022-08-17T12:08:58.583Z,9.81
2022-08-17T12:14:04.914Z,9.87
2022-08-17T12:19:11.011Z,9.88
2022-08-17T12:24:17.194Z,10.33
2022-08-17T12:29:35.842Z,9.32
2022-08-17T12:34:29.041Z,9.15
2022-08-17T12:39:35.245Z,9.27
2022-08-17T12:44:50.596Z,8.34
2022-08-17T12:49:46.879Z,9.11
2022-08-17T12:54:53.082Z,9.21
2022-08-17T12:59:59.218Z,8.84
2022-08-17T13:05:05.428Z,10.62
2022-08-17T13:10:11.526Z,9.70
2022-08-17T13:15:17.738Z,9.03
2022-08-17T13:20:23.874Z,11.09
2022-08-17T13:25:30.130Z,10.62
2022-08-17T13:30:36.338Z,9.99
2022-08-17T13:36:31.411Z,10.98
2022-08-17T13:41:37.925Z,12.41
2022-08-17T13:46:44.249Z,11.88
2022-08-17T13:51:50.211Z,13.44
2022-08-17T13:56:56.498Z,12.67
2022-08-17T14:02:02.676Z,11.96
2022-08-17T14:07:08.888Z,11.76
2022-08-17T14:12:15.472Z,12.00
2022-08-17T14:17:21.697Z,11.51
2022-08-17T14:22:27.947Z,7.83
2022-08-17T14:27:43.507Z,6.09
2022-08-17T14:32:40.342Z,5.73
2022-08-17T14:37:46.632Z,6.01
2022-08-17T14:42:52.723Z,5.58
2022-08-17T14:47:58.897Z,5.58
2022-08-17T14:53:05.100Z,5.02
2022-08-17T14:58:11.460Z,5.56
2022-08-17T15:03:17.610Z,5.45
2022-08-17T15:08:24.143Z,5.38
2022-08-17T15:13:30.293Z,7.10
2022-08-17T15:18:36.601Z,6.04
2022-08-17T15:23:42.941Z,6.06
2022-08-17T15:28:49.940Z,7.14
2022-08-17T15:33:54.503Z,5.73
2022-08-17T15:39:00.693Z,5.02
2022-08-17T15:44:07.213Z,4.84
2022-08-17T15:49:13.474Z,5.03
2022-08-17T15:54:22.825Z,5.83
2022-08-17T15:59:25.500Z,6.39
2022-08-17T16:04:32.143Z,6.61
2022-08-17T16:09:37.558Z,7.62
2022-08-17T16:14:43.669Z,7.35
2022-08-17T16:19:49.913Z,7.77
2022-08-17T16:24:57.032Z,7.86
2022-08-17T16:30:02.126Z,7.95
2022-08-17T16:40:10.644Z,8.19
2022-08-17T16:45:16.698Z,8.72
2022-08-17T16:50:22.946Z,9.58
2022-08-17T16:55:29.058Z,9.25
2022-08-17T17:00:35.402Z,9.92
2022-08-17T17:05:41.761Z,9.89
2022-08-17T17:10:48.142Z,10.41
2022-08-17T17:15:54.308Z,8.54
2022-08-17T17:21:00.561Z,7.43
2022-08-17T17:26:06.692Z,7.03
2022-08-17T17:31:12.895Z,5.75
2022-08-17T17:36:19.067Z,5.88
2022-08-17T17:41:26.458Z,6.56
2022-08-17T17:46:31.261Z,6.39
2022-08-17T17:52:05.261Z,7.53
2022-08-17T17:56:44.500Z,7.72
2022-08-17T18:01:49.390Z,9.72
2022-08-17T18:06:55.426Z,11.21
2022-08-17T18:12:01.693Z,10.87
2022-08-17T18:17:07.773Z,9.86
2022-08-17T18:22:14.738Z,9.15
2022-08-17T18:27:20.097Z,8.63
2022-08-17T18:32:26.449Z,9.27
2022-08-17T18:37:32.561Z,8.69
2022-08-17T18:42:38.872Z,9.07
2022-08-17T18:47:45.065Z,9.94
2022-08-17T18:52:51.338Z,9.09
2022-08-17T18:57:57.813Z,9.21
2022-08-17T19:03:04.206Z,9.07
2022-08-17T19:08:10.220Z,8.39
2022-08-17T19:13:24.180Z,8.14
2022-08-17T19:18:21.918Z,8.36
2022-08-17T19:23:28.243Z,7.94
2022-08-17T19:28:34.385Z,7.87
2022-08-17T19:33:40.609Z,8.07
2022-08-17T19:38:46.869Z,7.99
2022-08-17T19:43:53.040Z,7.94
2022-08-17T19:48:59.166Z,7.77
2022-08-17T19:54:06.736Z,7.47
2022-08-17T19:59:11.185Z,7.37
2022-08-17T20:04:17.534Z,8.08
2022-08-17T20:09:23.688Z,7.12
2022-08-17T20:14:29.421Z,6.95
2022-08-17T20:19:35.560Z,6.87
2022-08-17T20:24:41.877Z,6.67
2022-08-17T20:29:47.949Z,6.41
2022-08-17T20:34:54.372Z,6.69
2022-08-17T20:40:00.707Z,6.68
2022-08-17T20:45:07.008Z,6.57
2022-08-17T20:50:13.150Z,6.35
2022-08-17T20:55:19.403Z,6.92
2022-08-17T21:00:25.645Z,6.60
2022-08-17T21:05:32.192Z,6.70
2022-08-17T21:10:37.898Z,6.74
2022-08-17T21:15:44.551Z,6.67
2022-08-17T21:20:50.793Z,7.68
2022-08-17T21:25:57.102Z,7.77
2022-08-17T21:31:03.290Z,7.60
2022-08-17T21:36:09.905Z,8.39
2022-08-17T21:41:16.137Z,8.23
2022-08-17T21:46:22.501Z,8.41
2022-08-17T21:51:28.722Z,8.55
2022-08-17T21:56:35.013Z,8.59
2022-08-17T22:01:41.249Z,8.97
2022-08-17T22:06:52.333Z,8.77
2022-08-17T22:11:53.217Z,8.77
2022-08-17T22:16:59.692Z,9.32
2022-08-17T22:22:05.846Z,8.83
2022-08-17T22:27:12.094Z,9.59
2022-08-17T22:32:18.258Z,9.26
2022-08-17T22:37:27.503Z,8.93
2022-08-17T22:42:30.276Z,9.99
2022-08-17T22:47:36.539Z,8.62
2022-08-17T22:52:42.773Z,8.91
2022-08-17T22:57:49.155Z,9.71
2022-08-17T23:02:55.488Z,9.23
2022-08-17T23:08:01.646Z,9.27
2022-08-17T23:13:07.813Z,9.45
2022-08-17T23:18:14.078Z,9.74
2022-08-17T23:23:23.546Z,9.42
2022-08-17T23:28:26.379Z,9.57
2022-08-17T23:33:32.463Z,9.93
2022-08-17T23:38:38.741Z,9.68
2022-08-17T23:43:44.888Z,13.58
2022-08-17T23:48:51.646Z,14.72
2022-08-17T23:53:57.760Z,14.32
2022-08-17T23:59:03.952Z,13.97
